Edgewood, Iowa
Current Conditions -  °F | °C
As of 6:15 AM on Friday 21 Nov 2014 (Local Time) from KPDC Reporting Station
Clear Clear  
Wind Chill:   Ceiling: Unl
Heat Index:   Visibility: 10mi
Dew Point:   Wind: 3mph
Humidity: 84%   Direction: 130°SE
Pressure: 30.37"   Gusts: NA
Location:  42.64°N, 91.4°W
Report Text: KPDC 211215Z AUTO 13003KT 10SM CLR M15/M17 A3037 RMK AO2 T11501172
Loading
Personal Weather Stations






























Interactive Weather Map New forecast layout! Learn more

10-Day Weather Forecast

Advertisements
Track Severe Weather on mobile